This is the latest recevied weather packets stored in our database for station/object K5JLG-10. If no packets are shown the sender has not sent any weather packets the latest 10 day(s).
| Time | Temp. | Humidity | Pressure | Rain* | Wind** | Luminosity | Snow |
|---|---|---|---|---|---|---|---|
| 1777057758 | 31.67° C | 62% | 1004.8 hPa | 0 mm | - | - | - |
| 1777057178 | 31.11° C | 61% | 1004.9 hPa | 0 mm | - | - | - |
| 1777055958 | 30.56° C | 66% | 1005.1 hPa | 0 mm | - | - | - |
| 1777054757 | 30.56° C | 66% | 1005.3 hPa | 0 mm | - | - | - |
| 1777052978 | 30° C | 68% | 1005.4 hPa | 0 mm | - | - | - |
| 1777050577 | 28.89° C | 71% | 1005.9 hPa | 0 mm | - | - | - |
| 1777049957 | 28.33° C | 74% | 1005.9 hPa | 0 mm | - | - | - |
| 1777047557 | 27.22° C | 77% | 1006.1 hPa | 0 mm | - | - | - |
| 1777044578 | 25.56° C | 81% | 1005.8 hPa | 0 mm | - | - | - |
| 1777042157 | 25° C | 83% | 1005.7 hPa | 0 mm | - | - | - |
| 1777040356 | 24.44° C | 85% | 1005.6 hPa | 0 mm | - | - | - |
| 1777036156 | 23.33° C | 87% | 1005.2 hPa | 0 mm | - | - | - |
| 1777031956 | 22.78° C | 87% | 1004.7 hPa | 0 mm | - | - | - |
| 1777031356 | 22.78° C | 87% | 1004.7 hPa | 0 mm | - | - | - |
| 1777026557 | 23.33° C | 86% | 1004.8 hPa | 0 mm | - | - | - |
| 1777023556 | 23.33° C | 85% | 1004.8 hPa | 0 mm | - | - | - |
| 1777022956 | 23.33° C | 85% | 1004.6 hPa | 0 mm | - | - | - |
| 1777021156 | 23.33° C | 85% | 1004.9 hPa | 0 mm | - | - | - |
| 1777016977 | 23.33° C | 85% | 1004.6 hPa | 0 mm | - | - | - |
| 1777010956 | 24.44° C | 83% | 1005.3 hPa | 0 mm | - | - | - |
| 1777009776 | 24.44° C | 82% | 1005.3 hPa | 0 mm | - | - | - |
| 1777009156 | 24.44° C | 81% | 1005.1 hPa | 0 mm | - | - | - |
| 1777007955 | 24.44° C | 81% | 1005.1 hPa | 0 mm | - | - | - |
| 1777004956 | 24.44° C | 80% | 1005.6 hPa | 0 mm | - | - | - |
| 1777004356 | 24.44° C | 80% | 1005.6 hPa | 0 mm | - | - | - |
* Rain latest hour (hover to see other rain measurements)
** Current wind speed in m/s (hover to see current wind gust speed)